sensor_id;sensor_type;location;lat;lon;timestamp;temperature;humidity
1021;DHT22;499;42.648;23.270;2023-04-01T00:01:48;12.80;13.40
1021;DHT22;499;42.648;23.270;2023-04-01T00:04:16;12.80;13.40
1021;DHT22;499;42.648;23.270;2023-04-01T00:06:43;12.80;13.80
1021;DHT22;499;42.648;23.270;2023-04-01T00:09:10;12.80;14.90
1021;DHT22;499;42.648;23.270;2023-04-01T00:11:37;12.80;15.40
1021;DHT22;499;42.648;23.270;2023-04-01T00:14:04;12.80;13.90
1021;DHT22;499;42.648;23.270;2023-04-01T00:16:31;12.80;13.40
1021;DHT22;499;42.648;23.270;2023-04-01T00:18:58;12.90;13.40
1021;DHT22;499;42.648;23.270;2023-04-01T00:21:28;13.00;13.50
1021;DHT22;499;42.648;23.270;2023-04-01T00:23:55;13.00;14.00
1021;DHT22;499;42.648;23.270;2023-04-01T00:26:22;13.00;14.70
1021;DHT22;499;42.648;23.270;2023-04-01T00:28:50;13.00;15.80
1021;DHT22;499;42.648;23.270;2023-04-01T00:31:17;12.80;15.50
1021;DHT22;499;42.648;23.270;2023-04-01T00:33:44;12.70;14.00
1021;DHT22;499;42.648;23.270;2023-04-01T00:36:13;12.60;15.60
1021;DHT22;499;42.648;23.270;2023-04-01T00:38:42;12.60;18.60
1021;DHT22;499;42.648;23.270;2023-04-01T00:41:10;11.90;20.70
1021;DHT22;499;42.648;23.270;2023-04-01T00:43:40;11.90;21.30
1021;DHT22;499;42.648;23.270;2023-04-01T00:46:07;11.80;22.10
1021;DHT22;499;42.648;23.270;2023-04-01T00:48:37;11.60;23.00
1021;DHT22;499;42.648;23.270;2023-04-01T00:51:07;11.20;24.00
1021;DHT22;499;42.648;23.270;2023-04-01T00:53:39;11.20;24.10
1021;DHT22;499;42.648;23.270;2023-04-01T00:56:11;11.10;24.00
1021;DHT22;499;42.648;23.270;2023-04-01T00:58:42;11.10;24.00
1021;DHT22;499;42.648;23.270;2023-04-01T01:01:10;11.10;24.00
1021;DHT22;499;42.648;23.270;2023-04-01T01:03:37;11.10;24.00
1021;DHT22;499;42.648;23.270;2023-04-01T01:06:10;11.10;24.00
1021;DHT22;499;42.648;23.270;2023-04-01T01:09:03;11.00;23.70
1021;DHT22;499;42.648;23.270;2023-04-01T01:11:37;11.00;23.70
1021;DHT22;499;42.648;23.270;2023-04-01T01:14:17;10.80;23.90
1021;DHT22;499;42.648;23.270;2023-04-01T01:16:51;10.80;24.50
1021;DHT22;499;42.648;23.270;2023-04-01T01:19:35;10.90;23.90
1021;DHT22;499;42.648;23.270;2023-04-01T01:22:26;10.80;24.00
1021;DHT22;499;42.648;23.270;2023-04-01T01:25:32;10.90;23.30
1021;DHT22;499;42.648;23.270;2023-04-01T01:28:19;10.80;23.40
1021;DHT22;499;42.648;23.270;2023-04-01T01:30:52;10.80;23.80
1021;DHT22;499;42.648;23.270;2023-04-01T01:33:39;10.70;24.70
1021;DHT22;499;42.648;23.270;2023-04-01T01:36:13;10.50;23.60
1021;DHT22;499;42.648;23.270;2023-04-01T01:38:41;10.50;23.20
1021;DHT22;499;42.648;23.270;2023-04-01T01:41:09;10.60;23.30
1021;DHT22;499;42.648;23.270;2023-04-01T01:43:40;10.60;23.00
1021;DHT22;499;42.648;23.270;2023-04-01T01:46:12;10.60;23.00
1021;DHT22;499;42.648;23.270;2023-04-01T01:48:40;10.50;22.00
1021;DHT22;499;42.648;23.270;2023-04-01T01:51:10;10.70;21.50
1021;DHT22;499;42.648;23.270;2023-04-01T01:53:37;10.80;21.90
1021;DHT22;499;42.648;23.270;2023-04-01T01:56:04;10.70;22.20
1021;DHT22;499;42.648;23.270;2023-04-01T01:58:35;10.80;21.60
1021;DHT22;499;42.648;23.270;2023-04-01T02:01:08;10.90;21.60
1021;DHT22;499;42.648;23.270;2023-04-01T02:03:39;11.00;20.10
1021;DHT22;499;42.648;23.270;2023-04-01T02:06:11;10.90;21.10
1021;DHT22;499;42.648;23.270;2023-04-01T02:08:42;10.90;21.30
1021;DHT22;499;42.648;23.270;2023-04-01T02:11:12;10.90;21.20
1021;DHT22;499;42.648;23.270;2023-04-01T02:13:43;11.00;20.90
1021;DHT22;499;42.648;23.270;2023-04-01T02:16:18;11.00;21.00
1021;DHT22;499;42.648;23.270;2023-04-01T02:18:48;11.10;20.10
1021;DHT22;499;42.648;23.270;2023-04-01T02:21:20;10.90;21.30
1021;DHT22;499;42.648;23.270;2023-04-01T02:23:52;11.00;21.00
1021;DHT22;499;42.648;23.270;2023-04-01T02:26:20;11.00;21.50
1021;DHT22;499;42.648;23.270;2023-04-01T02:28:48;11.00;20.80
1021;DHT22;499;42.648;23.270;2023-04-01T02:31:16;11.00;20.10
1021;DHT22;499;42.648;23.270;2023-04-01T02:33:44;11.00;20.70
1021;DHT22;499;42.648;23.270;2023-04-01T02:36:12;10.90;21.40
1021;DHT22;499;42.648;23.270;2023-04-01T02:38:42;10.90;21.50
1021;DHT22;499;42.648;23.270;2023-04-01T02:41:09;10.80;21.10
1021;DHT22;499;42.648;23.270;2023-04-01T02:43:36;10.80;22.40
1021;DHT22;499;42.648;23.270;2023-04-01T02:46:03;10.80;21.10
1021;DHT22;499;42.648;23.270;2023-04-01T02:48:30;10.70;22.40
1021;DHT22;499;42.648;23.270;2023-04-01T02:50:57;10.70;22.50
1021;DHT22;499;42.648;23.270;2023-04-01T02:53:24;10.70;22.20
1021;DHT22;499;42.648;23.270;2023-04-01T02:55:53;10.70;21.50
1021;DHT22;499;42.648;23.270;2023-04-01T02:58:20;11.00;20.10
1021;DHT22;499;42.648;23.270;2023-04-01T03:00:47;11.00;19.60
1021;DHT22;499;42.648;23.270;2023-04-01T03:03:14;11.00;19.50
1021;DHT22;499;42.648;23.270;2023-04-01T03:05:41;11.10;18.20
1021;DHT22;499;42.648;23.270;2023-04-01T03:08:08;11.20;18.70
1021;DHT22;499;42.648;23.270;2023-04-01T03:10:35;11.20;19.00
1021;DHT22;499;42.648;23.270;2023-04-01T03:13:04;11.40;16.80
1021;DHT22;499;42.648;23.270;2023-04-01T03:15:31;11.40;17.90
1021;DHT22;499;42.648;23.270;2023-04-01T03:17:58;11.40;18.70
1021;DHT22;499;42.648;23.270;2023-04-01T03:20:25;11.30;18.60
1021;DHT22;499;42.648;23.270;2023-04-01T03:22:52;11.40;20.20
1021;DHT22;499;42.648;23.270;2023-04-01T03:25:19;11.20;21.00
1021;DHT22;499;42.648;23.270;2023-04-01T03:27:46;10.80;25.00
1021;DHT22;499;42.648;23.270;2023-04-01T03:30:15;11.00;22.50
1021;DHT22;499;42.648;23.270;2023-04-01T03:32:42;10.90;24.10
1021;DHT22;499;42.648;23.270;2023-04-01T03:35:09;10.90;25.60
1021;DHT22;499;42.648;23.270;2023-04-01T03:37:36;10.90;22.20
1021;DHT22;499;42.648;23.270;2023-04-01T03:40:05;11.10;22.50
1021;DHT22;499;42.648;23.270;2023-04-01T03:42:32;11.10;21.60
1021;DHT22;499;42.648;23.270;2023-04-01T03:44:59;11.20;22.40
1021;DHT22;499;42.648;23.270;2023-04-01T03:47:28;11.20;24.10
1021;DHT22;499;42.648;23.270;2023-04-01T03:49:55;11.30;25.90
1021;DHT22;499;42.648;23.270;2023-04-01T03:52:22;11.00;28.60
1021;DHT22;499;42.648;23.270;2023-04-01T03:54:49;11.00;28.00
1021;DHT22;499;42.648;23.270;2023-04-01T03:57:16;11.10;27.90
1021;DHT22;499;42.648;23.270;2023-04-01T03:59:42;10.80;27.60
1021;DHT22;499;42.648;23.270;2023-04-01T04:02:09;10.80;27.90
1021;DHT22;499;42.648;23.270;2023-04-01T04:04:38;10.80;26.90
1021;DHT22;499;42.648;23.270;2023-04-01T04:07:05;10.90;27.00
1021;DHT22;499;42.648;23.270;2023-04-01T04:09:32;10.80;25.20
1021;DHT22;499;42.648;23.270;2023-04-01T04:11:59;10.60;27.50
1021;DHT22;499;42.648;23.270;2023-04-01T04:14:27;10.60;27.50
1021;DHT22;499;42.648;23.270;2023-04-01T04:16:54;10.60;27.10
1021;DHT22;499;42.648;23.270;2023-04-01T04:19:21;10.60;25.90
1021;DHT22;499;42.648;23.270;2023-04-01T04:21:49;10.60;25.90
1021;DHT22;499;42.648;23.270;2023-04-01T04:24:16;10.70;25.50
1021;DHT22;499;42.648;23.270;2023-04-01T04:26:43;10.70;25.60
1021;DHT22;499;42.648;23.270;2023-04-01T04:29:10;10.70;25.20
1021;DHT22;499;42.648;23.270;2023-04-01T04:31:37;10.70;24.80
1021;DHT22;499;42.648;23.270;2023-04-01T04:34:04;10.90;24.50
1021;DHT22;499;42.648;23.270;2023-04-01T04:36:31;10.80;26.10
1021;DHT22;499;42.648;23.270;2023-04-01T04:38:59;10.90;24.00
1021;DHT22;499;42.648;23.270;2023-04-01T04:41:28;10.80;25.50
1021;DHT22;499;42.648;23.270;2023-04-01T04:43:55;10.70;27.40
1021;DHT22;499;42.648;23.270;2023-04-01T04:46:24;10.70;26.90
1021;DHT22;499;42.648;23.270;2023-04-01T04:48:51;10.50;27.40
1021;DHT22;499;42.648;23.270;2023-04-01T04:51:19;10.50;28.20
1021;DHT22;499;42.648;23.270;2023-04-01T04:53:47;10.60;27.50
1021;DHT22;499;42.648;23.270;2023-04-01T04:56:19;10.70;27.50
1021;DHT22;499;42.648;23.270;2023-04-01T04:58:46;10.70;27.80
1021;DHT22;499;42.648;23.270;2023-04-01T05:01:15;10.90;27.70
1021;DHT22;499;42.648;23.270;2023-04-01T05:03:43;10.90;26.40
1021;DHT22;499;42.648;23.270;2023-04-01T05:06:11;10.90;27.70
1021;DHT22;499;42.648;23.270;2023-04-01T05:08:39;10.90;27.70
1021;DHT22;499;42.648;23.270;2023-04-01T05:11:07;10.70;27.20
1021;DHT22;499;42.648;23.270;2023-04-01T05:13:37;10.60;29.20
1021;DHT22;499;42.648;23.270;2023-04-01T05:16:08;10.50;29.40
1021;DHT22;499;42.648;23.270;2023-04-01T05:18:35;10.20;31.10
1021;DHT22;499;42.648;23.270;2023-04-01T05:21:02;10.10;30.70
1021;DHT22;499;42.648;23.270;2023-04-01T05:23:31;10.10;31.10
1021;DHT22;499;42.648;23.270;2023-04-01T05:25:58;10.20;31.20
1021;DHT22;499;42.648;23.270;2023-04-01T05:28:25;10.10;32.70
1021;DHT22;499;42.648;23.270;2023-04-01T05:30:54;10.10;32.80
1021;DHT22;499;42.648;23.270;2023-04-01T05:33:20;9.90;32.60
1021;DHT22;499;42.648;23.270;2023-04-01T05:35:47;9.90;34.10
1021;DHT22;499;42.648;23.270;2023-04-01T05:38:14;10.00;33.60
1021;DHT22;499;42.648;23.270;2023-04-01T05:40:42;10.10;28.40
1021;DHT22;499;42.648;23.270;2023-04-01T05:43:09;10.20;27.60
1021;DHT22;499;42.648;23.270;2023-04-01T05:45:36;10.30;28.30
1021;DHT22;499;42.648;23.270;2023-04-01T05:48:05;10.40;28.50
1021;DHT22;499;42.648;23.270;2023-04-01T05:50:32;10.40;27.20
1021;DHT22;499;42.648;23.270;2023-04-01T05:52:59;10.70;27.00
1021;DHT22;499;42.648;23.270;2023-04-01T05:55:26;10.80;26.60
1021;DHT22;499;42.648;23.270;2023-04-01T05:57:53;11.00;24.80
1021;DHT22;499;42.648;23.270;2023-04-01T06:00:20;11.10;24.00
1021;DHT22;499;42.648;23.270;2023-04-01T06:02:47;11.10;23.60
1021;DHT22;499;42.648;23.270;2023-04-01T06:05:18;11.20;23.00
1021;DHT22;499;42.648;23.270;2023-04-01T06:07:46;11.20;24.10
1021;DHT22;499;42.648;23.270;2023-04-01T06:10:15;11.40;23.70
1021;DHT22;499;42.648;23.270;2023-04-01T06:12:56;11.60;22.10
1021;DHT22;499;42.648;23.270;2023-04-01T06:15:36;12.00;22.20
1021;DHT22;499;42.648;23.270;2023-04-01T06:18:45;12.30;22.30
1021;DHT22;499;42.648;23.270;2023-04-01T06:24:33;12.60;20.70
1021;DHT22;499;42.648;23.270;2023-04-01T06:27:13;12.70;21.20
1021;DHT22;499;42.648;23.270;2023-04-01T06:29:50;12.80;21.30
1021;DHT22;499;42.648;23.270;2023-04-01T06:32:40;12.90;21.30
1021;DHT22;499;42.648;23.270;2023-04-01T06:35:20;13.00;18.40
1021;DHT22;499;42.648;23.270;2023-04-01T06:38:15;13.00;18.70
1021;DHT22;499;42.648;23.270;2023-04-01T06:41:05;13.10;19.00
1021;DHT22;499;42.648;23.270;2023-04-01T06:43:40;13.00;19.30
1021;DHT22;499;42.648;23.270;2023-04-01T06:46:16;12.80;19.70
1021;DHT22;499;42.648;23.270;2023-04-01T06:49:00;12.70;18.80
1021;DHT22;499;42.648;23.270;2023-04-01T06:51:38;12.60;19.30
1021;DHT22;499;42.648;23.270;2023-04-01T06:54:10;12.70;18.70
1021;DHT22;499;42.648;23.270;2023-04-01T06:56:42;12.70;20.10
1021;DHT22;499;42.648;23.270;2023-04-01T06:59:15;12.90;19.50
1021;DHT22;499;42.648;23.270;2023-04-01T07:01:47;12.90;18.50
1021;DHT22;499;42.648;23.270;2023-04-01T07:04:20;13.20;19.20
1021;DHT22;499;42.648;23.270;2023-04-01T07:06:52;13.40;18.60
1021;DHT22;499;42.648;23.270;2023-04-01T07:09:24;13.70;18.30
1021;DHT22;499;42.648;23.270;2023-04-01T07:11:55;13.80;18.00
1021;DHT22;499;42.648;23.270;2023-04-01T07:14:30;13.90;16.40
1021;DHT22;499;42.648;23.270;2023-04-01T07:17:01;14.00;17.20
1021;DHT22;499;42.648;23.270;2023-04-01T07:19:33;13.70;17.40
1021;DHT22;499;42.648;23.270;2023-04-01T07:22:06;13.50;17.20
1021;DHT22;499;42.648;23.270;2023-04-01T07:24:44;13.80;16.50
1021;DHT22;499;42.648;23.270;2023-04-01T07:27:13;13.90;16.30
1021;DHT22;499;42.648;23.270;2023-04-01T07:29:40;13.70;17.10
1021;DHT22;499;42.648;23.270;2023-04-01T07:32:21;13.70;17.20
1021;DHT22;499;42.648;23.270;2023-04-01T07:35:07;13.70;17.90
1021;DHT22;499;42.648;23.270;2023-04-01T07:37:42;13.90;17.20
1021;DHT22;499;42.648;23.270;2023-04-01T07:40:21;14.20;17.20
1021;DHT22;499;42.648;23.270;2023-04-01T07:43:04;14.40;17.20
1021;DHT22;499;42.648;23.270;2023-04-01T07:45:37;14.50;16.20
1021;DHT22;499;42.648;23.270;2023-04-01T07:48:15;14.20;17.00
1021;DHT22;499;42.648;23.270;2023-04-01T07:50:51;14.10;16.60
1021;DHT22;499;42.648;23.270;2023-04-01T07:53:25;14.00;16.90
1021;DHT22;499;42.648;23.270;2023-04-01T07:56:02;13.70;17.60
1021;DHT22;499;42.648;23.270;2023-04-01T07:58:37;13.60;17.90
1021;DHT22;499;42.648;23.270;2023-04-01T08:01:15;13.50;19.20
1021;DHT22;499;42.648;23.270;2023-04-01T08:03:57;13.60;17.90
1021;DHT22;499;42.648;23.270;2023-04-01T08:06:33;13.60;17.90
1021;DHT22;499;42.648;23.270;2023-04-01T08:09:10;13.50;17.80
1021;DHT22;499;42.648;23.270;2023-04-01T08:11:54;13.40;18.00
1021;DHT22;499;42.648;23.270;2023-04-01T08:14:31;13.50;18.50
1021;DHT22;499;42.648;23.270;2023-04-01T08:17:03;13.40;19.30
1021;DHT22;499;42.648;23.270;2023-04-01T08:19:51;13.70;20.00
1021;DHT22;499;42.648;23.270;2023-04-01T08:22:26;13.80;18.80
1021;DHT22;499;42.648;23.270;2023-04-01T08:24:56;14.00;18.60
1021;DHT22;499;42.648;23.270;2023-04-01T08:27:34;14.20;18.40
1021;DHT22;499;42.648;23.270;2023-04-01T08:30:04;14.40;17.70
1021;DHT22;499;42.648;23.270;2023-04-01T08:32:35;14.50;18.10
1021;DHT22;499;42.648;23.270;2023-04-01T08:35:08;14.80;19.20
1021;DHT22;499;42.648;23.270;2023-04-01T08:37:40;15.20;16.60
1021;DHT22;499;42.648;23.270;2023-04-01T08:43:09;15.40;15.10
1021;DHT22;499;42.648;23.270;2023-04-01T08:46:01;15.30;16.30
1021;DHT22;499;42.648;23.270;2023-04-01T08:49:06;15.30;16.20
1021;DHT22;499;42.648;23.270;2023-04-01T08:55:02;14.90;14.80
1021;DHT22;499;42.648;23.270;2023-04-01T08:57:41;15.20;15.20
1021;DHT22;499;42.648;23.270;2023-04-01T09:00:22;15.30;15.00
1021;DHT22;499;42.648;23.270;2023-04-01T09:06:20;15.50;15.20
1021;DHT22;499;42.648;23.270;2023-04-01T09:12:15;15.60;15.30
1021;DHT22;499;42.648;23.270;2023-04-01T09:15:14;15.70;14.90
1021;DHT22;499;42.648;23.270;2023-04-01T09:18:12;15.80;15.40
1021;DHT22;499;42.648;23.270;2023-04-01T09:20:49;15.90;14.70
1021;DHT22;499;42.648;23.270;2023-04-01T09:23:46;16.20;15.60
1021;DHT22;499;42.648;23.270;2023-04-01T09:26:30;16.30;14.50
1021;DHT22;499;42.648;23.270;2023-04-01T09:29:10;16.60;11.90
1021;DHT22;499;42.648;23.270;2023-04-01T09:32:11;16.60;11.10
1021;DHT22;499;42.648;23.270;2023-04-01T09:34:54;16.80;10.40
1021;DHT22;499;42.648;23.270;2023-04-01T09:37:34;16.90;9.30
1021;DHT22;499;42.648;23.270;2023-04-01T09:40:15;16.90;7.90
1021;DHT22;499;42.648;23.270;2023-04-01T09:42:45;16.90;7.40
1021;DHT22;499;42.648;23.270;2023-04-01T09:48:16;17.20;8.10
1021;DHT22;499;42.648;23.270;2023-04-01T09:50:54;17.40;6.50
1021;DHT22;499;42.648;23.270;2023-04-01T09:53:42;17.40;6.10
1021;DHT22;499;42.648;23.270;2023-04-01T10:00:02;17.10;8.10
1021;DHT22;499;42.648;23.270;2023-04-01T10:03:01;17.40;6.40
1021;DHT22;499;42.648;23.270;2023-04-01T10:09:14;17.90;5.00
1021;DHT22;499;42.648;23.270;2023-04-01T10:15:22;18.20;8.80
1021;DHT22;499;42.648;23.270;2023-04-01T10:18:12;17.90;8.60
1021;DHT22;499;42.648;23.270;2023-04-01T10:21:03;17.80;7.30
1021;DHT22;499;42.648;23.270;2023-04-01T10:23:59;17.90;7.00
1021;DHT22;499;42.648;23.270;2023-04-01T10:33:10;18.50;5.70
1021;DHT22;499;42.648;23.270;2023-04-01T10:36:06;18.70;4.40
1021;DHT22;499;42.648;23.270;2023-04-01T10:45:13;17.60;5.30
1021;DHT22;499;42.648;23.270;2023-04-01T10:48:01;17.60;7.10
1021;DHT22;499;42.648;23.270;2023-04-01T10:50:54;17.80;8.10
1021;DHT22;499;42.648;23.270;2023-04-01T10:53:37;17.60;7.20
1021;DHT22;499;42.648;23.270;2023-04-01T11:02:48;17.90;6.10
1021;DHT22;499;42.648;23.270;2023-04-01T11:12:15;17.90;5.40
1021;DHT22;499;42.648;23.270;2023-04-01T11:15:31;17.90;5.50
1021;DHT22;499;42.648;23.270;2023-04-01T11:21:54;17.70;5.50
1021;DHT22;499;42.648;23.270;2023-04-01T11:27:48;17.40;8.30
1021;DHT22;499;42.648;23.270;2023-04-01T11:30:33;17.30;8.20
1021;DHT22;499;42.648;23.270;2023-04-01T11:33:14;17.10;9.30
1021;DHT22;499;42.648;23.270;2023-04-01T11:36:05;16.70;10.20
1021;DHT22;499;42.648;23.270;2023-04-01T11:41:32;16.00;12.50
1021;DHT22;499;42.648;23.270;2023-04-01T11:44:16;15.40;17.00
1021;DHT22;499;42.648;23.270;2023-04-01T11:47:00;14.70;20.00
1021;DHT22;499;42.648;23.270;2023-04-01T11:49:40;13.80;24.80
1021;DHT22;499;42.648;23.270;2023-04-01T11:52:22;12.50;32.30
1021;DHT22;499;42.648;23.270;2023-04-01T11:55:11;12.00;51.30
1021;DHT22;499;42.648;23.270;2023-04-01T12:00:52;10.90;69.80
1021;DHT22;499;42.648;23.270;2023-04-01T12:03:42;10.90;74.70
1021;DHT22;499;42.648;23.270;2023-04-01T12:06:14;10.70;77.40
1021;DHT22;499;42.648;23.270;2023-04-01T12:08:49;10.80;83.90
1021;DHT22;499;42.648;23.270;2023-04-01T12:11:26;10.90;89.10
1021;DHT22;499;42.648;23.270;2023-04-01T12:14:02;11.10;91.10
1021;DHT22;499;42.648;23.270;2023-04-01T12:16:44;11.00;73.30
1021;DHT22;499;42.648;23.270;2023-04-01T12:19:19;11.20;75.30
1021;DHT22;499;42.648;23.270;2023-04-01T12:21:57;11.60;68.30
1021;DHT22;499;42.648;23.270;2023-04-01T12:24:41;11.40;60.70
1021;DHT22;499;42.648;23.270;2023-04-01T12:27:42;11.60;55.60
1021;DHT22;499;42.648;23.270;2023-04-01T12:30:35;11.80;51.30
1021;DHT22;499;42.648;23.270;2023-04-01T12:36:35;11.70;50.30
1021;DHT22;499;42.648;23.270;2023-04-01T12:39:29;11.50;46.50
1021;DHT22;499;42.648;23.270;2023-04-01T12:42:07;11.60;51.60
1021;DHT22;499;42.648;23.270;2023-04-01T12:44:45;11.50;50.00
1021;DHT22;499;42.648;23.270;2023-04-01T12:47:51;11.40;55.40
1021;DHT22;499;42.648;23.270;2023-04-01T12:50:31;11.50;54.90
1021;DHT22;499;42.648;23.270;2023-04-01T12:53:14;11.60;54.40
1021;DHT22;499;42.648;23.270;2023-04-01T12:55:46;11.40;51.90
1021;DHT22;499;42.648;23.270;2023-04-01T12:58:41;11.10;47.40
1021;DHT22;499;42.648;23.270;2023-04-01T13:07:23;10.90;47.20
1021;DHT22;499;42.648;23.270;2023-04-01T13:10:02;10.80;41.20
1021;DHT22;499;42.648;23.270;2023-04-01T13:13:03;11.00;41.10
1021;DHT22;499;42.648;23.270;2023-04-01T13:15:40;11.20;41.50
1021;DHT22;499;42.648;23.270;2023-04-01T13:18:25;11.40;41.70
1021;DHT22;499;42.648;23.270;2023-04-01T13:21:04;11.70;36.00
1021;DHT22;499;42.648;23.270;2023-04-01T13:23:48;12.10;33.60
1021;DHT22;499;42.648;23.270;2023-04-01T13:26:25;12.50;33.10
1021;DHT22;499;42.648;23.270;2023-04-01T13:28:58;12.60;28.80
1021;DHT22;499;42.648;23.270;2023-04-01T13:31:42;12.60;27.90
1021;DHT22;499;42.648;23.270;2023-04-01T13:34:29;12.70;28.20
1021;DHT22;499;42.648;23.270;2023-04-01T13:37:10;12.60;25.00
1021;DHT22;499;42.648;23.270;2023-04-01T13:39:48;12.60;26.10
1021;DHT22;499;42.648;23.270;2023-04-01T13:42:24;12.40;24.90
1021;DHT22;499;42.648;23.270;2023-04-01T13:44:59;12.30;26.30
1021;DHT22;499;42.648;23.270;2023-04-01T13:47:50;12.40;23.90
1021;DHT22;499;42.648;23.270;2023-04-01T13:50:34;12.50;24.20
1021;DHT22;499;42.648;23.270;2023-04-01T13:53:37;12.70;22.90
1021;DHT22;499;42.648;23.270;2023-04-01T13:56:16;12.90;23.20
1021;DHT22;499;42.648;23.270;2023-04-01T14:01:41;13.20;21.50
1021;DHT22;499;42.648;23.270;2023-04-01T14:07:37;13.40;21.00
1021;DHT22;499;42.648;23.270;2023-04-01T14:10:13;13.30;21.50
1021;DHT22;499;42.648;23.270;2023-04-01T14:12:50;13.30;21.70
1021;DHT22;499;42.648;23.270;2023-04-01T14:15:38;13.20;20.50
1021;DHT22;499;42.648;23.270;2023-04-01T14:18:22;13.10;20.20
1021;DHT22;499;42.648;23.270;2023-04-01T14:21:12;13.20;19.60
1021;DHT22;499;42.648;23.270;2023-04-01T14:24:01;13.20;20.00
1021;DHT22;499;42.648;23.270;2023-04-01T14:26:50;13.40;20.20
1021;DHT22;499;42.648;23.270;2023-04-01T14:29:26;13.50;20.70
1021;DHT22;499;42.648;23.270;2023-04-01T14:32:02;13.60;21.40
1021;DHT22;499;42.648;23.270;2023-04-01T14:34:51;13.70;19.30
1021;DHT22;499;42.648;23.270;2023-04-01T14:37:39;13.70;18.70
1021;DHT22;499;42.648;23.270;2023-04-01T14:40:35;13.70;17.90
1021;DHT22;499;42.648;23.270;2023-04-01T14:43:47;13.80;16.50
1021;DHT22;499;42.648;23.270;2023-04-01T14:49:22;14.10;16.20
1021;DHT22;499;42.648;23.270;2023-04-01T14:51:50;14.20;16.20
1021;DHT22;499;42.648;23.270;2023-04-01T14:54:21;14.20;17.10
1021;DHT22;499;42.648;23.270;2023-04-01T14:57:10;14.40;17.40
1021;DHT22;499;42.648;23.270;2023-04-01T14:59:40;14.40;17.50
1021;DHT22;499;42.648;23.270;2023-04-01T15:02:22;14.50;18.60
1021;DHT22;499;42.648;23.270;2023-04-01T15:04:59;14.60;18.00
1021;DHT22;499;42.648;23.270;2023-04-01T15:10:53;14.60;17.20
1021;DHT22;499;42.648;23.270;2023-04-01T15:13:38;14.40;17.10
1021;DHT22;499;42.648;23.270;2023-04-01T15:16:18;14.30;16.40
1021;DHT22;499;42.648;23.270;2023-04-01T15:18:56;14.20;17.50
1021;DHT22;499;42.648;23.270;2023-04-01T15:21:43;14.20;15.90
1021;DHT22;499;42.648;23.270;2023-04-01T15:24:16;14.20;16.10
1021;DHT22;499;42.648;23.270;2023-04-01T15:30:14;13.80;17.30
1021;DHT22;499;42.648;23.270;2023-04-01T15:32:52;13.70;17.60
1021;DHT22;499;42.648;23.270;2023-04-01T15:35:34;13.70;17.70
1021;DHT22;499;42.648;23.270;2023-04-01T15:38:06;13.70;17.40
1021;DHT22;499;42.648;23.270;2023-04-01T15:40:42;13.70;18.40
1021;DHT22;499;42.648;23.270;2023-04-01T15:43:22;13.70;17.90
1021;DHT22;499;42.648;23.270;2023-04-01T15:45:58;13.60;18.00
1021;DHT22;499;42.648;23.270;2023-04-01T15:48:49;13.70;17.90
1021;DHT22;499;42.648;23.270;2023-04-01T15:51:31;13.60;17.90
1021;DHT22;499;42.648;23.270;2023-04-01T15:54:32;12.20;23.30
1021;DHT22;499;42.648;23.270;2023-04-01T15:57:20;10.90;28.80
1021;DHT22;499;42.648;23.270;2023-04-01T16:00:08;10.10;40.60
1021;DHT22;499;42.648;23.270;2023-04-01T16:02:43;9.50;54.70
1021;DHT22;499;42.648;23.270;2023-04-01T16:05:30;9.00;61.20
1021;DHT22;499;42.648;23.270;2023-04-01T16:08:15;8.60;68.00
1021;DHT22;499;42.648;23.270;2023-04-01T16:10:56;8.40;75.90
1021;DHT22;499;42.648;23.270;2023-04-01T16:13:35;8.30;86.50
1021;DHT22;499;42.648;23.270;2023-04-01T16:16:18;8.20;90.30
1021;DHT22;499;42.648;23.270;2023-04-01T16:19:02;7.40;93.90
1021;DHT22;499;42.648;23.270;2023-04-01T16:21:37;7.80;96.70
1021;DHT22;499;42.648;23.270;2023-04-01T16:24:17;7.70;99.90
1021;DHT22;499;42.648;23.270;2023-04-01T16:26:52;7.70;98.00
1021;DHT22;499;42.648;23.270;2023-04-01T16:29:27;7.80;99.10
1021;DHT22;499;42.648;23.270;2023-04-01T16:32:05;7.80;97.90
1021;DHT22;499;42.648;23.270;2023-04-01T16:34:39;7.80;97.40
1021;DHT22;499;42.648;23.270;2023-04-01T16:37:12;7.80;98.60
1021;DHT22;499;42.648;23.270;2023-04-01T16:39:47;7.90;98.20
1021;DHT22;499;42.648;23.270;2023-04-01T16:42:22;7.90;96.60
1021;DHT22;499;42.648;23.270;2023-04-01T16:44:55;7.90;95.70
1021;DHT22;499;42.648;23.270;2023-04-01T16:47:30;7.90;96.60
1021;DHT22;499;42.648;23.270;2023-04-01T16:50:00;7.80;94.20
1021;DHT22;499;42.648;23.270;2023-04-01T16:52:43;7.90;94.30
1021;DHT22;499;42.648;23.270;2023-04-01T16:55:17;7.90;89.00
1021;DHT22;499;42.648;23.270;2023-04-01T16:57:49;7.80;72.10
1021;DHT22;499;42.648;23.270;2023-04-01T17:00:23;7.90;63.90
1021;DHT22;499;42.648;23.270;2023-04-01T17:02:58;7.80;57.80
1021;DHT22;499;42.648;23.270;2023-04-01T17:05:40;7.80;50.00
1021;DHT22;499;42.648;23.270;2023-04-01T17:08:17;7.90;54.00
1021;DHT22;499;42.648;23.270;2023-04-01T17:10:51;7.90;48.90
1021;DHT22;499;42.648;23.270;2023-04-01T17:13:35;7.90;49.20
1021;DHT22;499;42.648;23.270;2023-04-01T17:16:21;7.90;48.90
1021;DHT22;499;42.648;23.270;2023-04-01T17:19:01;8.00;51.60
1021;DHT22;499;42.648;23.270;2023-04-01T17:21:47;7.90;48.90
1021;DHT22;499;42.648;23.270;2023-04-01T17:24:37;7.90;48.90
1021;DHT22;499;42.648;23.270;2023-04-01T17:27:18;8.00;51.30
1021;DHT22;499;42.648;23.270;2023-04-01T17:30:03;7.90;53.50
1021;DHT22;499;42.648;23.270;2023-04-01T17:32:42;7.80;49.60
1021;DHT22;499;42.648;23.270;2023-04-01T17:35:17;7.70;50.60
1021;DHT22;499;42.648;23.270;2023-04-01T17:37:57;7.70;48.30
1021;DHT22;499;42.648;23.270;2023-04-01T17:40:36;7.70;48.20
1021;DHT22;499;42.648;23.270;2023-04-01T17:43:12;7.80;49.40
1021;DHT22;499;42.648;23.270;2023-04-01T17:45:45;7.70;48.80
1021;DHT22;499;42.648;23.270;2023-04-01T17:48:24;7.80;47.40
1021;DHT22;499;42.648;23.270;2023-04-01T17:51:17;7.80;46.30
1021;DHT22;499;42.648;23.270;2023-04-01T17:53:54;7.70;47.70
1021;DHT22;499;42.648;23.270;2023-04-01T17:56:38;7.70;46.00
1021;DHT22;499;42.648;23.270;2023-04-01T17:59:16;7.70;44.20
1021;DHT22;499;42.648;23.270;2023-04-01T18:01:50;7.70;41.90
1021;DHT22;499;42.648;23.270;2023-04-01T18:04:41;7.80;39.30
1021;DHT22;499;42.648;23.270;2023-04-01T18:10:26;8.00;35.30
1021;DHT22;499;42.648;23.270;2023-04-01T18:16:01;8.10;36.80
1021;DHT22;499;42.648;23.270;2023-04-01T18:18:47;8.00;36.70
1021;DHT22;499;42.648;23.270;2023-04-01T18:21:22;8.00;38.40
1021;DHT22;499;42.648;23.270;2023-04-01T18:23:53;8.00;39.70
1021;DHT22;499;42.648;23.270;2023-04-01T18:26:28;8.00;39.60
1021;DHT22;499;42.648;23.270;2023-04-01T18:28:59;8.00;39.80
1021;DHT22;499;42.648;23.270;2023-04-01T18:31:34;7.90;39.70
1021;DHT22;499;42.648;23.270;2023-04-01T18:34:07;7.80;39.60
1021;DHT22;499;42.648;23.270;2023-04-01T18:36:43;7.80;40.90
1021;DHT22;499;42.648;23.270;2023-04-01T18:39:13;7.80;41.30
1021;DHT22;499;42.648;23.270;2023-04-01T18:41:51;7.70;42.20
1021;DHT22;499;42.648;23.270;2023-04-01T18:44:33;7.70;43.00